Flight Track Log - Related Links

Times and Time Zones

All times are in EDT time to prevent confusion due to time zone crossing. See the AAL1459 flight status page for this flight to view local times or setup timezone preferences in your user account.

Time Position Orientation Groundspeed Altitude Reporting Facility
EDT Latitude Longitude Course Direction KTS MPH feet Rate Location/Type
Mon 06:18:40 PM 42.0000 -87.9500 270° West 172 198 2,000  Level Chicago TRACON
Mon 06:20:00 PM 41.9667 -88.2222 270° West  Level FlightAware Approximate
Mon 06:20:58 PM 42.1308 -88.0656 327° Northwest 266 306 6,100  Level Chicago Center
Mon 06:21:00 PM 41.9667 -88.3833 270° West  Level FlightAware Approximate
Mon 06:22:00 PM 41.9667 -88.5444 270° West  Level FlightAware Approximate
Mon 06:22:00 PM 42.1867 -88.1383 316° Northwest 293 337 9,400  Level Chicago Center
Mon 06:23:00 PM 41.9667 -88.7055 270° West  Level FlightAware Approximate
Mon 06:24:00 PM 41.9668 -88.8666 270° West  Level FlightAware Approximate
Mon 06:24:04 PM 42.1625 -88.3636 262° West 320 368 13,700  Level Chicago Center
Mon 06:25:06 PM 42.1581 -88.5083 268° West 377 434 15,400 1,984 Climbing Chicago Center
Mon 06:26:08 PM 42.1528 -88.6928 268° West 412 474 17,800 2,274 Climbing Chicago Center
Mon 06:27:10 PM 42.1478 -88.8561 268° West 432 497 20,100 2,032 Climbing Chicago Center
Mon 06:28:12 PM 42.1419 -89.0225 267° West 441 507 22,000 1,694 Climbing Chicago Center
Mon 06:29:14 PM 42.1372 -89.1925 268° West 451 519 23,600 1,452 Climbing Chicago Center
Mon 06:31:18 PM 42.1272 -89.5486 268° West 476 548 26,500 1,494 Climbing Chicago Center
Mon 06:33:23 PM 42.1236 -89.9433 269° West 481 554 29,800 1,428 Climbing Chicago Center
Mon 06:35:00 PM 42.0901 -90.1986 260° West  Level FlightAware Approximate
Mon 06:36:29 PM 42.1164 -90.4789 260° West 475 547 33,900  Level Chicago Center
Mon 06:37:31 PM 42.1161 -90.6528 270° West 476 548 34,900 1,065 Climbing Chicago Center
Mon 06:38:33 PM 42.1433 -90.8619 280° West 479 551 36,100 1,065 Climbing Chicago Center
Mon 06:39:35 PM 42.1758 -91.0336 284° West 476 548 37,100 919 Climbing Chicago Center
Mon 06:40:37 PM 42.2078 -91.2042 284° West 475 547 38,000 290 Climbing Chicago Center
Mon 06:42:41 PM 42.2714 -91.5381 285° West 461 531 38,000  Level Chicago Center
Mon 06:43:43 PM 42.3019 -91.7067 284° West 463 533 38,000  Level Chicago Center
Mon 06:44:45 PM 42.3397 -91.9092 284° West 463 533 38,000  Level Chicago Center
Mon 06:46:50 PM 42.4003 -92.2492 284° West 464 534 38,000  Level Chicago Center
Mon 06:47:53 PM 42.4306 -92.4192 284° West 465 535 38,000  Level Minneapolis Center
Mon 06:49:00 PM 42.4502 -92.5965 270° West  Level FlightAware Approximate
Mon 06:49:57 PM 42.4783 -92.7914 270° West 459 528 38,000  Level Minneapolis Center
Mon 06:52:00 PM 42.4797 -93.1283 270° West 452 520 38,000  Level Chicago Center
Mon 06:53:02 PM 42.4803 -93.2964 270° West 451 519 38,000  Level Chicago Center
Mon 06:54:04 PM 42.4803 -93.4622 270° West 447 514 38,000  Level Chicago Center
Mon 06:55:08 PM 42.4828 -93.6597 271° West 440 506 38,000  Level Minneapolis Center
Mon 06:57:10 PM 42.4822 -93.9844 270° West 436 502 38,000  Level Chicago Center
Mon 06:58:14 PM 42.4833 -94.1456 271° West 433 498 38,000  Level Minneapolis Center
Mon 07:01:20 PM 42.4797 -94.6844 270° West 439 505 38,000  Level Minneapolis Center
Mon 07:02:22 PM 42.4794 -94.8522 270° West 442 509 38,000  Level Minneapolis Center
Mon 07:03:24 PM 42.4783 -95.0181 270° West 443 510 38,000  Level Minneapolis Center
Mon 07:05:00 PM 42.4702 -95.2742 268° West  Level FlightAware Approximate
Mon 07:06:30 PM 42.4717 -95.5583 268° West 453 521 38,000  Level Minneapolis Center
Mon 07:07:32 PM 42.4697 -95.7244 269° West 446 513 38,000  Level Minneapolis Center
Mon 07:08:34 PM 42.4672 -95.8906 269° West 442 509 38,000  Level Minneapolis Center
Mon 07:09:37 PM 42.4633 -96.0542 268° West 439 505 38,000  Level Minneapolis Center
Mon 07:10:39 PM 42.4600 -96.2200 268° West 442 509 38,000  Level Minneapolis Center
Mon 07:11:41 PM 42.4578 -96.3833 269° West 437 503 38,000  Level Minneapolis Center
Mon 07:12:00 PM 42.4307 -96.3949 268° West  Level FlightAware Approximate
Mon 07:13:00 PM 42.4512 -96.5957 268° West  Level FlightAware Approximate
Mon 07:14:47 PM 42.4450 -96.9192 268° West 448 516 38,000  Level Minneapolis Center
Mon 07:16:00 PM 42.4397 -97.1154 268° West  Level Estimated
Mon 07:16:50 PM 42.4356 -97.2583 268° West 451 519 38,000  Level Minneapolis Center
Mon 07:17:52 PM 42.4306 -97.4272 268° West 451 519 38,000  Level Minneapolis Center
Mon 07:18:54 PM 42.4242 -97.6319 268° West 454 522 38,000  Level Minneapolis Center
Mon 07:19:56 PM 42.4186 -97.8025 268° West 454 522 38,000  Level Minneapolis Center
Mon 07:20:00 PM 42.4094 -97.7241 268° West  Level FlightAware Approximate
Mon 07:20:58 PM 42.4119 -97.9800 267° West 449 517 38,000  Level Minneapolis Center
Mon 07:22:00 PM 42.4072 -98.1483 268° West 450 518 38,000  Level Minneapolis Center
Mon 07:23:01 PM 42.4000 -98.3178 267° West 452 520 38,000  Level Minneapolis Center
Mon 07:24:03 PM 42.3933 -98.4853 267° West 448 516 38,000  Level Minneapolis Center
Mon 07:25:05 PM 42.3875 -98.6525 267° West 447 514 38,000  Level Minneapolis Center
Mon 07:26:07 PM 42.3806 -98.8194 267° West 447 514 38,000  Level Minneapolis Center
Mon 07:27:08 PM 42.3719 -99.0208 267° West 449 517 38,000  Level Minneapolis Center
Mon 07:28:10 PM 42.3636 -99.1892 266° West 450 518 38,000  Level Minneapolis Center
Mon 07:29:12 PM 42.3553 -99.3594 266° West 455 524 38,000  Level Minneapolis Center
Mon 07:29:51 PM 42.3508 -99.4594 267° West 452 520 38,000  Level Denver Center
Mon 07:32:57 PM 42.3239 -99.9928 266° West 450 518 38,000  Level Denver Center
Mon 07:33:59 PM 42.3156 -100.1533 266° West 448 516 38,000  Level Denver Center
Mon 07:35:01 PM 42.3056 -100.3378 266° West 444 511 38,000  Level Denver Center
Mon 07:36:03 PM 42.2956 -100.4978 265° West 447 514 38,000  Level Denver Center
Mon 07:37:05 PM 42.2861 -100.6811 266° West 441 507 38,000  Level Denver Center
Mon 07:39:00 PM 42.2625 -100.9367 263° West  Level FlightAware Approximate
Mon 07:40:28 PM 42.2511 -101.2192 263° West 438 504 38,000  Level Salt Lake Center
Mon 07:41:13 PM 42.2444 -101.3553 266° West 436 502 38,000  Level Denver Center
Mon 07:42:15 PM 42.2353 -101.5103 265° West 434 499 38,000  Level Denver Center
Mon 07:44:34 PM 42.2078 -101.8944 265° West 437 503 38,000  Level Salt Lake Center
Mon 07:45:21 PM 42.1992 -102.0297 265° West 437 503 38,000  Level Denver Center
Mon 07:46:23 PM 42.1892 -102.1850 265° West 436 502 38,000  Level Denver Center
Mon 07:47:25 PM 42.1739 -102.3619 263° West 434 499 38,000  Level Denver Center
Mon 07:49:00 PM 42.1387 -102.6135 264° West  Level FlightAware Approximate
Mon 07:49:29 PM 42.1500 -102.6956 264° West 431 496 38,000  Level Denver Center
Mon 07:51:33 PM 42.1261 -103.0028 264° West 428 493 38,000  Level Denver Center
Mon 07:52:35 PM 42.1114 -103.1853 264° West 436 502 38,000  Level Denver Center
Mon 07:53:37 PM 42.0992 -103.3394 264° West 435 501 38,000  Level Denver Center
Mon 07:54:39 PM 42.0836 -103.5181 263° West 431 496 38,000  Level Denver Center
Mon 07:55:41 PM 42.0703 -103.6708 263° West 429 494 38,000  Level Denver Center
Mon 07:56:43 PM 42.0556 -103.8469 264° West 425 489 38,000  Level Denver Center
Mon 07:57:45 PM 42.0428 -103.9981 264° West 423 487 38,000  Level Denver Center
Mon 07:58:47 PM 42.0267 -104.1783 263° West 433 498 38,000  Level Denver Center
Mon 08:00:59 PM 41.9944 -104.5125 263° West 434 499 38,000  Level Salt Lake Center
Mon 08:02:00 PM 41.9781 -104.6925 263° West 433 498 38,000  Level Salt Lake Center
Mon 08:02:55 PM 41.9678 -104.8208 264° West 435 501 38,000  Level Denver Center
Mon 08:03:57 PM 41.9506 -105.0003 263° West 433 498 38,000  Level Denver Center
Mon 08:04:59 PM 41.9350 -105.1542 262° West 433 498 38,000  Level Denver Center
Mon 08:07:03 PM 41.9014 -105.4917 262° West 439 505 38,000  Level Denver Center
Mon 08:08:05 PM 41.8822 -105.6742 262° West 442 509 38,000  Level Denver Center
Mon 08:10:13 PM 41.8467 -106.0183 262° West 449 517 38,000  Level Salt Lake Center
Mon 08:11:11 PM 41.8308 -106.1758 262° West 449 517 38,000  Level Denver Center
Mon 08:12:13 PM 41.8136 -106.3342 262° West 450 518 38,000  Level Denver Center
Mon 08:15:00 PM 41.7763 -106.6071 260° West  Level FlightAware Approximate
Mon 08:16:32 PM 41.7325 -107.0497 260° West 444 511 38,000  Level Denver Center
Mon 08:17:34 PM 41.7111 -107.2322 261° West 446 513 38,000  Level Denver Center
Mon 08:19:38 PM 41.6711 -107.5736 261° West 449 517 38,000  Level Denver Center
Mon 08:20:40 PM 41.6528 -107.7314 261° West 448 516 38,000  Level Denver Center
Mon 08:21:42 PM 41.6325 -107.8889 260° West 450 518 38,000  Level Denver Center
Mon 08:22:43 PM 41.6103 -108.0731 261° West 449 517 38,000  Level Denver Center
Mon 08:23:32 PM 41.5933 -108.2067 260° West 452 520 38,000  Level Salt Lake Center
Mon 08:24:34 PM 41.5739 -108.3642 261° West 452 520 38,000  Level Salt Lake Center
Mon 08:26:51 PM 41.5231 -108.7544 260° West 449 517 38,000  Level Denver Center
Mon 08:27:52 PM 41.5028 -108.9114 260° West 450 518 38,000  Level Denver Center
Mon 08:28:39 PM 41.4853 -109.0436 260° West 454 522 38,000  Level Salt Lake Center
Mon 08:30:00 PM 41.4585 -109.2169 258° West  Level FlightAware Approximate
Mon 08:30:42 PM 41.4394 -109.3764 258° West 455 524 38,000  Level Salt Lake Center
Mon 08:31:44 PM 41.4142 -109.5597 260° West 451 519 38,000  Level Salt Lake Center
Mon 08:32:45 PM 41.3917 -109.7178 259° West 456 525 38,000  Level Salt Lake Center
Mon 08:33:47 PM 41.3731 -109.9033 262° West 455 524 38,000  Level Salt Lake Center
Mon 08:34:48 PM 41.3731 -110.0661 270° West 459 528 38,000  Level Salt Lake Center
Mon 08:36:00 PM 41.3254 -110.2480 251° West  Level FlightAware Approximate
Mon 08:36:51 PM 41.3736 -110.4172 251° West 457 526 38,000  Level Salt Lake Center
Mon 08:37:52 PM 41.3858 -110.5789 276° West 458 527 38,000  Level Salt Lake Center
Mon 08:38:54 PM 41.3994 -110.7683 276° West 460 529 38,000  Level Salt Lake Center
Mon 08:39:55 PM 41.4111 -110.9306 276° West 461 531 38,000  Level Salt Lake Center
Mon 08:41:00 PM 41.3745 -111.0979 254° West  Level FlightAware Approximate
Mon 08:41:58 PM 41.3794 -111.2828 254° West 454 522 38,000  Level Salt Lake Center
Mon 08:43:00 PM 41.3508 -111.4469 257° West 457 526 38,000  Level Salt Lake Center
Mon 08:45:00 PM 41.2791 -111.7565 253° West  Level FlightAware Approximate
Mon 08:47:06 PM 41.2311 -112.0969 254° West 464 534 38,000  Level Salt Lake Center
Mon 08:48:07 PM 41.1944 -112.2931 256° West 462 532 38,000  Level Salt Lake Center
Mon 08:50:10 PM 41.1317 -112.6208 256° West 461 531 38,000  Level Salt Lake Center
Mon 08:51:12 PM 41.1000 -112.7856 256° West 463 533 38,000  Level Salt Lake Center
Mon 08:52:00 PM 41.0575 -112.8484 254° West  Level FlightAware Approximate
Mon 08:52:13 PM 41.0769 -112.9525 260° West 464 534 38,000  Level Salt Lake Center
Mon 08:53:15 PM 41.0542 -113.1192 260° West 462 532 38,000  Level Salt Lake Center
Mon 08:54:17 PM 41.0289 -113.2850 259° West 461 531 38,000  Level Salt Lake Center
Mon 08:56:20 PM 40.9750 -113.6478 259° West 457 526 38,000  Level Salt Lake Center
Mon 08:57:21 PM 40.9497 -113.8136 259° West 460 529 38,000  Level Salt Lake Center
Mon 08:58:23 PM 40.9256 -113.9806 259° West 463 533 38,000  Level Salt Lake Center
Mon 08:59:24 PM 40.8997 -114.1483 259° West 467 537 38,000  Level Salt Lake Center
Mon 09:00:26 PM 40.8739 -114.3150 258° West 465 535 38,000  Level Salt Lake Center
Mon 09:01:27 PM 40.8436 -114.5064 258° West 466 536 38,000  Level Salt Lake Center
Mon 09:02:29 PM 40.8186 -114.6664 258° West 465 535 38,000  Level Salt Lake Center
Mon 09:03:30 PM 40.7928 -114.8261 258° West 465 535 38,000  Level Salt Lake Center
Mon 09:04:32 PM 40.7608 -115.0139 257° West 468 539 38,000  Level Salt Lake Center
Mon 09:05:33 PM 40.7369 -115.1731 259° West 465 535 38,000  Level Salt Lake Center
Mon 09:06:34 PM 40.7039 -115.3606 257° West 469 540 38,000  Level Salt Lake Center
Mon 09:07:36 PM 40.6781 -115.5211 258° West 468 539 38,000  Level Salt Lake Center
Mon 09:08:37 PM 40.6506 -115.6819 257° West 470 541 38,000  Level Salt Lake Center
Mon 09:09:39 PM 40.6194 -115.8694 258° West 470 541 38,000  Level Salt Lake Center
Mon 09:10:40 PM 40.5917 -116.0297 257° West 470 541 38,000  Level Salt Lake Center
Mon 09:11:42 PM 40.5606 -116.2175 258° West 470 541 38,000  Level Salt Lake Center
Mon 09:13:44 PM 40.5039 -116.5408 257° West 472 543 38,000  Level Oakland Center
Mon 09:14:45 PM 40.4703 -116.7331 257° West 468 539 38,000  Level Oakland Center
Mon 09:15:48 PM 40.4408 -116.8975 257° West 472 543 38,000  Level Salt Lake Center
Mon 09:16:49 PM 40.4114 -117.0633 257° West 473 544 38,000  Level Salt Lake Center
Mon 09:18:00 PM 40.3627 -117.2425 256° West  Level FlightAware Approximate
Mon 09:18:52 PM 40.3472 -117.4089 256° West 471 542 38,000  Level Salt Lake Center
Mon 09:19:54 PM 40.3178 -117.5703 257° West 474 545 38,000  Level Salt Lake Center
Mon 09:20:55 PM 40.2825 -117.7578 256° West 475 547 38,000  Level Salt Lake Center
Mon 09:21:53 PM 40.2503 -117.9194 255° West 476 548 38,000  Level Oakland Center
Mon 09:22:54 PM 40.2197 -118.0731 255° West 477 549 38,000 -541 Level Oakland Center
Mon 09:23:55 PM 40.1811 -118.2728 256° West 475 547 36,900 -1,033 Descending Oakland Center
Mon 09:24:56 PM 40.1489 -118.4417 256° West 481 554 35,900 -1,869 Descending Oakland Center
Mon 09:25:57 PM 40.1025 -118.6006 249° West 475 547 33,100 -3,220 Descending Oakland Center
Mon 09:26:59 PM 40.0064 -118.7200 224° Southwest 482 555 29,300 -3,707 Descending Oakland Center
Mon 09:28:00 PM 39.9089 -118.8383 223° Southwest 483 556 25,500 -3,246 Descending Oakland Center
Mon 09:29:01 PM 39.8156 -118.9542 224° Southwest 471 542 22,700 -2,361 Descending Oakland Center
Mon 09:30:02 PM 39.7244 -119.0611 222° Southwest 449 517 20,700 -1,820 Descending Oakland Center
Mon 09:31:03 PM 39.6381 -119.1667 223° Southwest 433 498 19,000 -1,672 Descending Oakland Center
Mon 09:32:04 PM 39.5308 -119.2953 223° Southwest 439 505 17,300 -1,475 Descending Oakland Center
Mon 09:33:05 PM 39.4486 -119.3953 223° Southwest 414 476 16,000 -927 Descending Oakland Center
Mon 09:34:07 PM 39.3786 -119.4781 222° Southwest 348 400 15,400 -946 Descending Oakland Center
Mon 09:36:09 PM 39.2333 -119.6011 213° Southwest 307 353 13,100 -959 Descending Oakland Center
Mon 09:38:11 PM 39.1097 -119.7042 213° Southwest 300 345 11,500 -984 Descending Oakland Center
Mon 09:39:12 PM 39.1631 -119.7603 321° Northwest 270 311 10,100 -1,131 Descending Oakland Center
Mon 09:40:13 PM 39.2272 -119.7619 359° North 243 280 9,200 -732 Descending Oakland Center
Mon 09:41:15 PM 39.2847 -119.7628 359° North 225 259 8,600 -581 Descending Oakland Center

Login

Don't have an account? Register now (free) for customized features, flight alerts, and more!